createdAt,value
2023-01-31T00:01:33.250Z,49.70
2023-01-31T00:04:35.080Z,48.13
2023-01-31T00:07:36.711Z,51.53
2023-01-31T00:10:38.518Z,49.60
2023-01-31T00:13:40.448Z,51.40
2023-01-31T00:16:42.005Z,52.27
2023-01-31T00:19:43.555Z,52.97
2023-01-31T00:22:45.229Z,50.47
2023-01-31T00:25:46.814Z,52.53
2023-01-31T00:28:49.399Z,50.07
2023-01-31T00:31:53.425Z,54.73
2023-01-31T00:34:55.281Z,53.63
2023-01-31T00:37:56.912Z,60.23
2023-01-31T00:40:59.617Z,66.30
2023-01-31T00:44:01.490Z,58.53
2023-01-31T00:47:05.156Z,64.10
2023-01-31T00:50:07.080Z,71.27
2023-01-31T00:53:08.858Z,71.33
2023-01-31T00:56:12.337Z,56.93
2023-01-31T00:59:14.411Z,52.70
2023-01-31T01:02:16.180Z,54.30
2023-01-31T01:05:18.459Z,47.53
2023-01-31T01:08:21.220Z,43.53
2023-01-31T01:11:24.539Z,39.73
2023-01-31T01:14:26.539Z,40.70
2023-01-31T01:17:28.157Z,44.23
2023-01-31T01:20:29.727Z,28.03
2023-01-31T01:23:32.010Z,35.23
2023-01-31T01:26:35.002Z,21.10
2023-01-31T01:29:39.369Z,18.23
2023-01-31T01:32:41.094Z,17.80
2023-01-31T01:35:42.711Z,17.13
2023-01-31T01:38:45.257Z,17.30
2023-01-31T01:41:47.180Z,18.70
2023-01-31T01:44:54.965Z,16.63
2023-01-31T01:47:59.014Z,21.73
2023-01-31T01:51:01.327Z,32.90
2023-01-31T01:54:05.064Z,37.67
2023-01-31T01:57:07.315Z,31.40
2023-01-31T02:00:09.694Z,31.93
2023-01-31T02:03:16.368Z,36.80
2023-01-31T02:06:18.011Z,35.20
2023-01-31T02:09:32.240Z,35.63
2023-01-31T02:12:34.118Z,33.93
2023-01-31T02:15:36.005Z,35.00
2023-01-31T02:18:38.026Z,32.23
2023-01-31T02:21:46.485Z,38.70
2023-01-31T02:24:58.238Z,47.50
2023-01-31T02:28:18.409Z,43.30
2023-01-31T02:31:52.620Z,39.97
2023-01-31T02:34:59.428Z,39.17
2023-01-31T02:38:01.106Z,39.00
2023-01-31T02:41:27.740Z,37.27
2023-01-31T02:44:51.112Z,36.30
2023-01-31T02:47:56.043Z,28.73
2023-01-31T02:51:00.435Z,25.90
2023-01-31T02:54:06.034Z,26.83
2023-01-31T02:57:07.761Z,29.63
2023-01-31T03:00:10.310Z,21.93
2023-01-31T03:03:38.169Z,28.83
2023-01-31T03:06:54.755Z,17.50
2023-01-31T03:10:15.551Z,19.50
2023-01-31T03:13:20.831Z,22.80
2023-01-31T03:16:41.270Z,20.13
2023-01-31T03:20:15.972Z,18.40
2023-01-31T03:23:19.423Z,15.30
2023-01-31T03:26:23.061Z,9.40
2023-01-31T03:29:26.572Z,11.17
2023-01-31T03:32:31.081Z,10.37
2023-01-31T03:35:33.711Z,24.23
2023-01-31T03:38:37.132Z,24.43
2023-01-31T03:41:38.856Z,27.40
2023-01-31T03:44:40.668Z,30.77
2023-01-31T03:47:44.110Z,31.27
2023-01-31T03:51:03.637Z,31.23
2023-01-31T03:54:07.132Z,11.73
2023-01-31T03:57:16.184Z,11.87
2023-01-31T04:00:18.727Z,10.70
2023-01-31T04:03:26.568Z,10.07
2023-01-31T04:06:28.572Z,12.47
2023-01-31T04:09:30.557Z,12.27
2023-01-31T04:12:35.985Z,13.50
2023-01-31T04:15:37.681Z,15.87
2023-01-31T04:18:39.285Z,13.40
2023-01-31T04:21:40.892Z,12.80
2023-01-31T04:24:42.500Z,13.47
2023-01-31T04:27:44.218Z,15.73
2023-01-31T04:30:45.817Z,16.60
2023-01-31T04:33:47.540Z,15.13
2023-01-31T04:36:49.189Z,14.50
2023-01-31T04:39:50.849Z,15.27
2023-01-31T04:42:52.449Z,13.60
2023-01-31T04:45:54.061Z,10.87
2023-01-31T04:48:55.730Z,12.10
2023-01-31T04:51:57.624Z,16.30
2023-01-31T04:54:59.434Z,10.83
2023-01-31T04:58:01.264Z,13.70
2023-01-31T05:01:03.844Z,15.43
2023-01-31T05:04:05.897Z,12.40
2023-01-31T05:07:07.860Z,14.93
2023-01-31T05:10:09.951Z,18.73
2023-01-31T05:13:11.901Z,12.90
2023-01-31T05:16:16.727Z,13.23
2023-01-31T05:19:20.726Z,11.83
2023-01-31T05:22:22.767Z,16.90
2023-01-31T05:25:25.810Z,13.07
2023-01-31T05:28:27.559Z,15.43
2023-01-31T05:31:29.593Z,17.20
2023-01-31T05:34:33.272Z,14.13
2023-01-31T05:37:35.111Z,12.63
2023-01-31T05:40:37.049Z,14.03
2023-01-31T05:43:38.810Z,15.63
2023-01-31T05:46:40.483Z,13.33
2023-01-31T05:49:42.165Z,16.23
2023-01-31T05:52:44.330Z,16.67
2023-01-31T05:55:46.048Z,18.87
2023-01-31T05:58:51.140Z,16.03
2023-01-31T06:01:54.092Z,13.63
2023-01-31T06:04:55.805Z,17.00
2023-01-31T06:07:57.583Z,18.83
2023-01-31T06:11:01.447Z,16.87
2023-01-31T06:14:03.146Z,18.03
2023-01-31T06:17:04.820Z,14.67
2023-01-31T06:20:06.631Z,14.87
2023-01-31T06:23:08.382Z,13.17
2023-01-31T06:26:09.947Z,15.37
2023-01-31T06:29:11.607Z,17.63
2023-01-31T06:32:13.295Z,11.57
2023-01-31T06:35:15.232Z,16.97
2023-01-31T06:38:16.887Z,16.43
2023-01-31T06:41:21.722Z,18.47
2023-01-31T06:44:23.395Z,16.73
2023-01-31T06:47:25.098Z,15.30
2023-01-31T06:50:26.750Z,20.13
2023-01-31T06:53:28.424Z,15.90
2023-01-31T06:56:30.452Z,20.10
2023-01-31T06:59:32.752Z,19.20
2023-01-31T07:02:34.423Z,17.57
2023-01-31T07:05:36.150Z,20.77
2023-01-31T07:08:37.913Z,28.20
2023-01-31T07:11:39.527Z,19.67
2023-01-31T07:14:42.667Z,17.97
2023-01-31T07:17:44.497Z,16.77
2023-01-31T07:20:46.127Z,19.73
2023-01-31T07:23:47.753Z,21.63
2023-01-31T07:26:51.893Z,14.60
2023-01-31T07:29:53.533Z,22.27
2023-01-31T07:32:55.458Z,15.43
2023-01-31T07:35:57.124Z,17.10
2023-01-31T07:38:59.972Z,22.47
2023-01-31T07:42:01.702Z,29.13
2023-01-31T07:45:20.932Z,22.50
2023-01-31T07:48:24.268Z,16.67
2023-01-31T07:51:25.863Z,15.17
2023-01-31T07:54:27.503Z,16.57
2023-01-31T07:57:31.035Z,21.43
2023-01-31T08:00:51.302Z,21.13
2023-01-31T08:03:52.909Z,18.43
2023-01-31T08:06:55.659Z,27.30
2023-01-31T08:09:57.250Z,17.93
2023-01-31T08:12:58.824Z,21.37
2023-01-31T08:16:00.509Z,26.20
2023-01-31T08:19:02.876Z,24.60
2023-01-31T08:22:05.042Z,23.87
2023-01-31T08:25:06.867Z,43.23
2023-01-31T08:28:08.690Z,26.53
2023-01-31T08:31:13.199Z,26.07
2023-01-31T08:34:14.866Z,47.43
2023-01-31T08:37:18.457Z,24.93
2023-01-31T08:40:20.231Z,23.87
2023-01-31T08:43:21.893Z,30.87
2023-01-31T08:46:31.363Z,22.13
2023-01-31T08:49:36.381Z,48.30
2023-01-31T08:52:38.395Z,29.37
2023-01-31T08:55:40.051Z,29.87
2023-01-31T08:58:42.509Z,40.40
2023-01-31T09:01:46.672Z,32.97
2023-01-31T09:04:49.613Z,27.67
2023-01-31T09:07:51.300Z,26.00
2023-01-31T09:10:53.708Z,27.63
2023-01-31T09:13:55.358Z,22.87
2023-01-31T09:16:57.331Z,24.90
2023-01-31T09:19:59.039Z,26.20
2023-01-31T09:23:00.719Z,20.47
2023-01-31T09:26:02.406Z,36.00
2023-01-31T09:29:03.965Z,71.90
2023-01-31T09:32:07.383Z,28.93
2023-01-31T09:35:09.017Z,38.47
2023-01-31T09:38:10.594Z,29.30
2023-01-31T09:41:23.576Z,26.47
2023-01-31T09:44:25.246Z,33.60
2023-01-31T09:47:29.953Z,41.63
2023-01-31T09:50:35.940Z,45.70
2023-01-31T09:53:38.586Z,45.90
2023-01-31T09:56:42.838Z,30.73
2023-01-31T09:59:53.611Z,31.03
2023-01-31T10:02:55.177Z,24.80
2023-01-31T10:06:14.477Z,55.17
2023-01-31T10:09:16.103Z,32.63
2023-01-31T10:12:20.348Z,31.83
2023-01-31T10:15:45.216Z,24.50
2023-01-31T10:18:49.392Z,28.67
2023-01-31T10:21:53.350Z,26.33
2023-01-31T10:24:59.858Z,29.13
2023-01-31T10:28:04.793Z,25.23
2023-01-31T10:31:25.106Z,32.90
2023-01-31T10:34:34.757Z,27.13
2023-01-31T10:37:43.143Z,29.63
2023-01-31T10:40:48.944Z,34.60
2023-01-31T10:43:54.027Z,31.17
2023-01-31T10:46:57.079Z,27.07
2023-01-31T10:49:58.811Z,23.93
2023-01-31T10:53:00.480Z,24.97
2023-01-31T10:56:02.139Z,24.60
2023-01-31T10:59:22.455Z,30.53
2023-01-31T11:02:25.758Z,22.53
2023-01-31T11:05:28.795Z,27.57
2023-01-31T11:08:30.407Z,24.80
2023-01-31T11:11:32.011Z,23.57
2023-01-31T11:14:33.805Z,20.43
2023-01-31T11:17:36.722Z,15.37
2023-01-31T11:20:44.589Z,19.23
2023-01-31T11:23:46.225Z,19.30
2023-01-31T11:26:56.335Z,23.03
2023-01-31T11:30:00.132Z,24.83
2023-01-31T11:33:02.207Z,15.10
2023-01-31T11:36:13.005Z,17.90
2023-01-31T11:39:28.388Z,29.10
2023-01-31T11:42:30.105Z,15.87
2023-01-31T11:45:33.089Z,16.53
2023-01-31T11:48:42.053Z,20.33
2023-01-31T11:51:45.245Z,20.17
2023-01-31T11:54:48.266Z,19.90
2023-01-31T11:57:54.584Z,22.97
2023-01-31T12:01:01.169Z,23.70
2023-01-31T12:04:06.698Z,23.80
2023-01-31T12:07:30.363Z,16.67
2023-01-31T12:10:52.291Z,20.17
2023-01-31T12:13:54.621Z,21.77
2023-01-31T12:16:56.586Z,20.57
2023-01-31T12:20:21.197Z,19.77
2023-01-31T12:23:26.508Z,31.03
2023-01-31T12:26:34.601Z,23.00
2023-01-31T12:29:54.900Z,17.07
2023-01-31T12:33:05.758Z,20.30
2023-01-31T12:36:45.983Z,21.17
2023-01-31T12:39:47.613Z,38.40
2023-01-31T12:42:53.663Z,36.33
2023-01-31T12:45:58.571Z,22.97
2023-01-31T12:49:18.888Z,41.23
2023-01-31T12:52:29.272Z,31.70
2023-01-31T12:55:43.440Z,37.60
2023-01-31T12:59:15.393Z,38.20
2023-01-31T13:02:30.221Z,26.33
2023-01-31T13:05:40.892Z,27.53
2023-01-31T13:08:50.968Z,19.33
2023-01-31T13:12:13.089Z,26.73
2023-01-31T13:15:18.305Z,20.63
2023-01-31T13:18:21.198Z,23.80
2023-01-31T13:21:29.554Z,18.87
2023-01-31T13:24:37.882Z,25.17
2023-01-31T13:27:42.184Z,19.40
2023-01-31T13:31:00.595Z,26.73
2023-01-31T13:34:25.634Z,26.13
2023-01-31T13:37:30.549Z,27.97
2023-01-31T13:40:38.755Z,33.73
2023-01-31T13:43:40.650Z,22.10
2023-01-31T13:46:53.605Z,33.67
2023-01-31T13:49:57.918Z,31.77
2023-01-31T13:53:02.139Z,55.40
2023-01-31T13:56:05.308Z,57.53
2023-01-31T13:59:09.088Z,50.97
2023-01-31T14:02:18.120Z,89.63
2023-01-31T14:05:38.216Z,52.70
2023-01-31T14:08:49.989Z,48.63
2023-01-31T14:11:51.851Z,71.10
2023-01-31T14:14:54.205Z,55.03
2023-01-31T14:17:55.811Z,64.73
2023-01-31T14:20:57.378Z,44.93
2023-01-31T14:24:00.353Z,60.03
2023-01-31T14:27:17.626Z,72.93
2023-01-31T14:30:23.124Z,87.97
2023-01-31T14:33:25.721Z,36.47
2023-01-31T14:36:30.442Z,50.17
2023-01-31T14:39:38.317Z,40.50
2023-01-31T14:42:46.223Z,44.20
2023-01-31T14:45:54.195Z,59.37
2023-01-31T14:49:06.000Z,45.10
2023-01-31T14:52:07.696Z,74.77
2023-01-31T14:55:22.574Z,49.40
2023-01-31T14:58:26.337Z,61.20
2023-01-31T15:01:35.772Z,69.90
2023-01-31T15:04:37.821Z,89.00
2023-01-31T15:07:57.941Z,66.97
2023-01-31T15:11:04.406Z,61.73
2023-01-31T15:14:33.362Z,61.20
2023-01-31T15:17:40.479Z,62.23
2023-01-31T15:20:43.681Z,61.23
2023-01-31T15:23:45.654Z,65.30
2023-01-31T15:26:48.270Z,72.60
2023-01-31T15:29:56.531Z,71.87
2023-01-31T15:33:13.588Z,63.83
2023-01-31T15:36:44.719Z,62.20
2023-01-31T15:39:51.755Z,66.77
2023-01-31T15:42:53.388Z,64.77
2023-01-31T15:45:55.041Z,65.47
2023-01-31T15:48:57.495Z,68.83
2023-01-31T15:52:10.474Z,72.47
2023-01-31T15:55:16.397Z,74.13
2023-01-31T15:58:23.314Z,67.73
2023-01-31T16:01:30.351Z,67.70
2023-01-31T16:04:32.127Z,121.53
2023-01-31T16:07:34.707Z,115.33
2023-01-31T16:10:36.347Z,118.90
2023-01-31T16:13:39.220Z,71.63
2023-01-31T16:16:41.136Z,95.57
2023-01-31T16:19:42.747Z,100.53
2023-01-31T16:22:55.661Z,95.10
2023-01-31T16:26:07.139Z,94.60
2023-01-31T16:29:10.511Z,65.53
2023-01-31T16:32:23.385Z,83.33
2023-01-31T16:35:27.037Z,57.87
2023-01-31T16:38:32.122Z,58.90
2023-01-31T16:41:39.794Z,51.27
2023-01-31T16:44:42.804Z,64.47
2023-01-31T16:47:44.783Z,64.70
2023-01-31T16:50:46.628Z,62.00
2023-01-31T16:54:11.210Z,55.67
2023-01-31T16:57:23.690Z,70.77
2023-01-31T17:00:28.370Z,62.03
2023-01-31T17:03:30.651Z,53.47
2023-01-31T17:06:33.320Z,56.10
2023-01-31T17:09:35.670Z,50.17
2023-01-31T17:12:40.380Z,62.67
2023-01-31T17:15:42.056Z,46.30
2023-01-31T17:18:43.805Z,47.33
2023-01-31T17:21:51.383Z,75.10
2023-01-31T17:24:53.425Z,58.50
2023-01-31T17:27:57.298Z,52.90
2023-01-31T17:30:59.033Z,74.10
2023-01-31T17:34:03.787Z,69.03
2023-01-31T17:37:05.902Z,65.37
2023-01-31T17:40:08.000Z,48.27
2023-01-31T17:43:17.063Z,41.13
2023-01-31T17:46:19.235Z,39.17
2023-01-31T17:49:24.445Z,55.67
2023-01-31T17:52:26.431Z,39.33
2023-01-31T17:55:28.606Z,25.27
2023-01-31T17:58:30.980Z,58.97
2023-01-31T18:01:32.645Z,46.03
2023-01-31T18:04:34.572Z,35.97
2023-01-31T18:07:36.125Z,43.53
2023-01-31T18:10:37.798Z,36.57
2023-01-31T18:13:39.874Z,44.77
2023-01-31T18:16:41.487Z,36.47
2023-01-31T18:19:43.196Z,31.70
2023-01-31T18:22:45.292Z,59.67
2023-01-31T18:25:47.009Z,47.70
2023-01-31T18:28:49.038Z,11.00
2023-01-31T18:31:50.669Z,20.43
2023-01-31T18:34:52.408Z,15.57
2023-01-31T18:37:55.492Z,26.13
2023-01-31T18:40:57.265Z,15.13
2023-01-31T18:43:58.884Z,25.37
2023-01-31T18:47:00.660Z,18.10
2023-01-31T18:50:02.369Z,13.10
2023-01-31T18:53:04.363Z,13.63
2023-01-31T18:56:07.152Z,13.07
2023-01-31T18:59:08.759Z,17.57
2023-01-31T19:02:11.821Z,20.50
2023-01-31T19:05:13.450Z,15.83
2023-01-31T19:08:15.079Z,16.70
2023-01-31T19:11:17.552Z,11.70
2023-01-31T19:14:19.241Z,17.43
2023-01-31T19:17:20.880Z,14.20
2023-01-31T19:20:22.620Z,16.63
2023-01-31T19:23:24.776Z,13.13
2023-01-31T19:26:26.815Z,12.03
2023-01-31T19:29:29.068Z,16.93
2023-01-31T19:32:31.324Z,25.77
2023-01-31T19:35:33.115Z,13.23
2023-01-31T19:38:34.750Z,21.93
2023-01-31T19:41:36.389Z,28.43
2023-01-31T19:44:38.130Z,31.37
2023-01-31T19:47:39.777Z,31.40
2023-01-31T19:50:41.794Z,35.57
2023-01-31T19:53:44.064Z,51.70
2023-01-31T19:56:45.885Z,32.37
2023-01-31T19:59:47.617Z,29.07
2023-01-31T20:02:49.268Z,32.13
2023-01-31T20:05:50.868Z,31.00
2023-01-31T20:08:56.602Z,42.20
2023-01-31T20:11:58.178Z,28.07
2023-01-31T20:14:59.865Z,20.27
2023-01-31T20:18:01.589Z,13.43
2023-01-31T20:21:03.519Z,14.07
2023-01-31T20:24:05.539Z,21.33
2023-01-31T20:27:07.114Z,35.23
2023-01-31T20:30:09.215Z,30.27
2023-01-31T20:33:11.197Z,20.03
2023-01-31T20:36:12.799Z,19.17
2023-01-31T20:39:14.524Z,16.50
2023-01-31T20:42:16.947Z,20.80
2023-01-31T20:45:18.805Z,15.43
2023-01-31T20:48:20.438Z,12.47
2023-01-31T20:51:21.992Z,17.80
2023-01-31T20:54:23.773Z,13.70
2023-01-31T20:57:25.482Z,24.67
2023-01-31T21:00:27.141Z,20.00
2023-01-31T21:03:29.298Z,16.23
2023-01-31T21:06:30.990Z,16.47
2023-01-31T21:09:32.648Z,14.90
2023-01-31T21:12:34.512Z,12.87
2023-01-31T21:15:36.296Z,15.43
2023-01-31T21:18:39.043Z,34.30
2023-01-31T21:21:40.647Z,11.90
2023-01-31T21:24:42.299Z,13.20
2023-01-31T21:27:44.139Z,12.00
2023-01-31T21:30:45.917Z,29.93
2023-01-31T21:33:48.728Z,12.03
2023-01-31T21:36:50.379Z,23.40
2023-01-31T21:39:51.992Z,19.23
2023-01-31T21:42:53.911Z,29.73
2023-01-31T21:45:55.632Z,18.60
2023-01-31T21:48:57.366Z,23.83
2023-01-31T21:51:58.990Z,13.30
2023-01-31T21:55:00.905Z,12.77
2023-01-31T21:58:02.594Z,13.30
2023-01-31T22:01:06.102Z,19.00
2023-01-31T22:04:07.895Z,12.50
2023-01-31T22:07:09.663Z,14.83
2023-01-31T22:10:11.309Z,10.23
2023-01-31T22:13:12.973Z,8.50
2023-01-31T22:16:15.504Z,11.67
2023-01-31T22:19:17.098Z,15.67
2023-01-31T22:22:18.696Z,12.73
2023-01-31T22:25:20.286Z,13.20
2023-01-31T22:28:22.010Z,17.20
2023-01-31T22:31:24.090Z,15.80
2023-01-31T22:34:25.782Z,15.30
2023-01-31T22:37:27.369Z,15.47
2023-01-31T22:40:29.006Z,20.30
2023-01-31T22:43:31.135Z,14.57
2023-01-31T22:46:32.956Z,16.30
2023-01-31T22:49:34.597Z,20.00
2023-01-31T22:52:36.213Z,18.07
2023-01-31T22:55:41.618Z,17.00
2023-01-31T22:58:43.412Z,14.73
2023-01-31T23:01:45.052Z,16.33
2023-01-31T23:04:46.644Z,11.57
2023-01-31T23:07:48.280Z,10.80
2023-01-31T23:10:49.974Z,18.23
2023-01-31T23:13:51.707Z,10.83
2023-01-31T23:17:12.011Z,13.37
2023-01-31T23:20:15.324Z,11.03
2023-01-31T23:23:16.963Z,9.87
2023-01-31T23:26:18.700Z,12.97
2023-01-31T23:29:20.329Z,11.63
2023-01-31T23:32:22.014Z,10.70
2023-01-31T23:35:23.562Z,10.40
2023-01-31T23:38:25.226Z,9.27
2023-01-31T23:41:26.786Z,14.77
2023-01-31T23:44:28.400Z,10.80
2023-01-31T23:47:29.956Z,10.70
2023-01-31T23:50:31.607Z,13.47
2023-01-31T23:53:33.259Z,8.10
2023-01-31T23:56:34.904Z,11.17
2023-01-31T23:59:36.636Z,10.97
